Time;durP1;ratioP1;P1;durP2;ratioP2;P2;SDS_P1;SDS_P2;PMS_P1;PMS_P2;Temp;Humidity;BMP_temperature;BMP_pressure;BME280_temperature;BME280_humidity;BME280_pressure;Samples;Min_cycle;Max_cycle;Signal;HPM_P1;HPM_P2
2021/08/17 00:01:09;;;;;;;;;15.75;12.75;;;;;26.20;42.06;101815.72;5081240;27;52092;-51
2021/08/17 00:03:34;;;;;;;;;14.50;13.25;;;;;26.19;42.15;101809.31;5109630;27;51017;-50
2021/08/17 00:06:01;;;;;;;;;14.50;11.00;;;;;26.19;42.38;101811.25;5120646;27;50959;-49
2021/08/17 00:08:27;;;;;;;;;10.50;9.00;;;;;26.20;42.35;101818.50;5120098;27;50928;-48
2021/08/17 00:10:53;;;;;;;;;14.75;11.50;;;;;26.20;42.06;101818.50;5119822;27;52891;-48
2021/08/17 00:13:20;;;;;;;;;10.00;8.75;;;;;26.19;42.07;101819.59;5101833;27;51006;-48
2021/08/17 00:15:45;;;;;;;;;16.50;12.50;;;;;26.20;42.46;101807.38;5120164;27;51116;-50
2021/08/17 00:18:11;;;;;;;;;10.00;9.75;;;;;26.18;42.45;101812.34;5120343;27;51353;-46
2021/08/17 00:20:37;;;;;;;;;12.00;11.75;;;;;26.19;42.00;101805.69;5119702;27;51588;-50
2021/08/17 00:23:05;;;;;;;;;10.75;10.75;;;;;26.19;42.32;101812.09;5119953;27;51343;-47
2021/08/17 00:25:31;;;;;;;;;9.50;9.25;;;;;26.18;42.31;101810.41;5120023;27;50908;-49
2021/08/17 00:27:56;;;;;;;;;11.50;10.00;;;;;26.18;42.21;101810.41;5101495;27;50911;-48
2021/08/17 00:30:21;;;;;;;;;13.25;11.25;;;;;26.18;42.31;101817.91;5081159;27;50880;-48
2021/08/17 00:32:47;;;;;;;;;13.75;13.00;;;;;26.18;42.31;101815.13;5098924;27;50980;-47
2021/08/17 00:35:12;;;;;;;;;12.50;10.75;;;;;26.17;42.19;101808.72;5099038;27;50923;-51
2021/08/17 00:37:37;;;;;;;;;12.50;11.00;;;;;26.17;42.17;101807.88;5099250;27;50808;-48
2021/08/17 00:40:03;;;;;;;;;8.25;8.25;;;;;26.17;42.00;101810.66;5098777;27;51725;-49
2021/08/17 00:42:37;;;;;;;;;12.00;11.75;;;;;26.16;42.17;101801.47;5098637;27;50939;-48
2021/08/17 00:45:03;;;;;;;;;14.25;12.50;;;;;26.17;41.99;101805.94;5099114;27;50923;-47
2021/08/17 00:47:29;;;;;;;;;15.00;10.25;;;;;26.16;42.23;101806.19;5099011;27;51264;-48
2021/08/17 00:49:54;;;;;;;;;15.00;13.25;;;;;26.16;42.37;101800.63;5098481;27;51828;-50
2021/08/17 00:52:19;;;;;;;;;13.50;10.75;;;;;26.16;42.02;101811.75;5099121;27;50891;-48
2021/08/17 00:54:45;;;;;;;;;13.00;11.25;;;;;26.16;42.18;101797.84;5098937;27;50971;-47
2021/08/17 00:57:14;;;;;;;;;16.50;12.00;;;;;26.16;42.02;101803.41;5098828;27;51052;-49
2021/08/17 00:59:42;;;;;;;;;13.75;9.75;;;;;26.15;41.82;101798.91;5098450;27;52011;-48
2021/08/17 01:02:08;;;;;;;;;15.00;11.25;;;;;26.14;42.18;101798.06;5076848;28;50984;-48
2021/08/17 01:04:35;;;;;;;;;9.75;8.00;;;;;26.14;42.24;101803.63;5096796;27;51264;-50
2021/08/17 01:07:05;;;;;;;;;13.75;10.75;;;;;26.14;42.47;101794.44;5098953;27;51078;-49
2021/08/17 01:09:31;;;;;;;;;8.00;8.00;;;;;26.13;42.14;101796.38;5098544;27;51894;-49
2021/08/17 01:12:00;;;;;;;;;13.25;12.25;;;;;26.13;42.16;101788.03;5098264;27;50887;-48
2021/08/17 01:14:25;;;;;;;;;7.25;5.25;;;;;26.13;42.04;101795.53;5098492;27;51050;-47
2021/08/17 01:16:51;;;;;;;;;11.00;9.00;;;;;26.12;42.01;101794.69;5098972;27;50935;-49
2021/08/17 01:19:19;;;;;;;;;8.75;8.25;;;;;26.12;42.21;101796.63;5098201;27;52128;-49
2021/08/17 01:21:46;;;;;;;;;10.00;8.50;;;;;26.11;42.04;101787.44;5098790;27;51415;-49
2021/08/17 01:24:11;;;;;;;;;9.25;9.25;;;;;26.12;42.34;101796.63;5098577;27;51005;-47
2021/08/17 01:26:37;;;;;;;;;9.50;9.50;;;;;26.11;42.21;101798.53;5091489;27;50977;-47
2021/08/17 01:29:02;;;;;;;;;13.00;9.50;;;;;26.10;42.20;101805.19;5077529;28;51441;-51
2021/08/17 01:31:29;;;;;;;;;9.50;8.25;;;;;26.11;42.41;101806.03;5077449;28;51003;-50
2021/08/17 01:33:54;;;;;;;;;7.75;7.75;;;;;26.11;42.21;101803.25;5077616;28;50860;-50
2021/08/17 01:36:20;;;;;;;;;10.50;10.00;;;;;26.11;42.18;101808.81;5078119;28;50912;-49
2021/08/17 01:38:47;;;;;;;;;14.75;9.75;;;;;26.09;42.17;101803.50;5077318;28;51062;-48
2021/08/17 01:41:13;;;;;;;;;12.00;9.00;;;;;26.10;42.02;101815.44;5077257;28;51392;-48
2021/08/17 01:43:38;;;;;;;;;8.25;8.25;;;;;26.10;42.37;101812.66;5077763;28;51488;-49
2021/08/17 01:46:04;;;;;;;;;9.75;8.75;;;;;26.09;42.41;101811.81;5077693;28;51076;-48
2021/08/17 01:48:31;;;;;;;;;9.75;7.25;;;;;26.09;42.29;101808.22;5077317;28;51907;-47
2021/08/17 01:50:57;;;;;;;;;10.25;7.75;;;;;26.09;42.05;101810.97;5077454;28;51321;-49
2021/08/17 01:53:24;;;;;;;;;10.25;7.00;;;;;26.09;42.37;101813.75;5077612;27;51128;-50
2021/08/17 01:55:51;;;;;;;;;9.75;9.00;;;;;26.08;42.51;101815.69;5077449;28;50821;-46
2021/08/17 01:58:16;;;;;;;;;10.00;8.50;;;;;26.08;42.43;101812.06;5077100;28;50979;-50
2021/08/17 02:00:46;;;;;;;;;8.50;7.75;;;;;26.08;42.03;101803.75;5077142;28;50937;-50
2021/08/17 02:03:11;;;;;;;;;7.00;6.75;;;;;26.07;42.33;101796.50;5100681;27;50884;-48
2021/08/17 02:05:37;;;;;;;;;7.75;7.00;;;;;26.07;42.08;101789.00;5083468;27;51235;-51
2021/08/17 02:08:03;;;;;;;;;8.00;6.25;;;;;26.08;42.32;101798.19;5118212;27;50885;-48
2021/08/17 02:10:29;;;;;;;;;9.00;8.00;;;;;26.07;42.26;101791.78;5118553;27;50805;-49
2021/08/17 02:12:54;;;;;;;;;8.25;8.00;;;;;26.06;42.23;101792.88;5118175;27;51024;-45
2021/08/17 02:15:19;;;;;;;;;8.25;6.25;;;;;26.06;42.26;101789.25;5099976;27;50894;-43
2021/08/17 02:17:45;;;;;;;;;7.75;7.75;;;;;26.06;42.27;101789.25;5117943;27;51009;-45
2021/08/17 02:20:11;;;;;;;;;9.25;8.00;;;;;26.06;42.27;101783.69;5118135;27;51073;-45
2021/08/17 02:22:36;;;;;;;;;6.75;6.75;;;;;26.05;41.95;101791.19;5118226;27;51137;-45
2021/08/17 02:25:01;;;;;;;;;7.75;7.75;;;;;26.05;42.40;101782.84;5100245;27;51020;-44
2021/08/17 02:27:32;;;;;;;;;9.00;8.00;;;;;26.05;42.27;101784.75;5103459;27;51033;-44
2021/08/17 02:29:57;;;;;;;;;10.00;8.25;;;;;26.05;42.19;101785.63;5097460;27;50883;-43
2021/08/17 02:32:23;;;;;;;;;13.00;10.75;;;;;26.04;41.95;101780.28;5097549;27;51675;-45
2021/08/17 02:34:48;;;;;;;;;9.50;9.50;;;;;26.05;42.17;101784.75;5097724;27;50864;-43
2021/08/17 02:37:13;;;;;;;;;9.00;9.00;;;;;26.05;42.11;101781.97;5097173;27;51781;-43
2021/08/17 02:39:39;;;;;;;;;9.25;8.50;;;;;26.04;42.00;101786.69;5097129;27;50951;-43
2021/08/17 02:42:04;;;;;;;;;10.50;8.25;;;;;26.03;42.18;101785.00;5097067;27;50837;-45
2021/08/17 02:44:29;;;;;;;;;6.75;5.75;;;;;26.04;42.17;101785.84;5098791;27;50852;-43
2021/08/17 02:46:55;;;;;;;;;8.00;7.75;;;;;26.02;42.16;101788.84;5082704;27;51710;-47
2021/08/17 02:49:20;;;;;;;;;9.25;7.50;;;;;26.04;42.23;101788.63;5100657;27;50963;-44
2021/08/17 02:51:45;;;;;;;;;3.25;3.25;;;;;26.02;42.45;101783.31;5100765;27;50983;-45
2021/08/17 02:54:11;;;;;;;;;8.00;7.00;;;;;26.02;42.07;101788.00;5101130;27;51146;-43
2021/08/17 02:56:36;;;;;;;;;10.75;6.00;;;;;26.01;42.25;101787.16;5100333;27;50934;-44
2021/08/17 02:59:01;;;;;;;;;9.75;7.75;;;;;26.03;42.28;101789.72;5082737;27;50889;-45
2021/08/17 03:01:27;;;;;;;;;6.25;6.25;;;;;26.03;42.47;101784.16;5100655;27;51001;-43
2021/08/17 03:03:52;;;;;;;;;10.00;8.25;;;;;26.01;42.29;101787.16;5113690;27;51198;-42
2021/08/17 03:06:17;;;;;;;;;7.75;6.75;;;;;26.01;42.04;101780.78;5102902;27;52598;-43
2021/08/17 03:08:43;;;;;;;;;7.00;5.25;;;;;26.01;42.22;101786.31;5121080;27;50967;-44
2021/08/17 03:11:08;;;;;;;;;10.50;8.00;;;;;26.02;42.21;101785.25;5121170;27;51072;-47
2021/08/17 03:13:33;;;;;;;;;5.75;5.75;;;;;26.01;42.57;101786.31;5121347;27;51129;-43
2021/08/17 03:15:59;;;;;;;;;8.00;5.00;;;;;25.99;42.65;101777.41;5120732;27;51055;-44
2021/08/17 03:18:24;;;;;;;;;7.50;5.75;;;;;26.00;42.06;101773.53;5120738;27;50849;-44
2021/08/17 03:20:50;;;;;;;;;7.00;7.00;;;;;26.00;42.30;101777.16;5102926;27;51169;-43
2021/08/17 03:23:17;;;;;;;;;8.25;7.50;;;;;26.00;42.07;101777.16;5102839;27;51065;-43
2021/08/17 03:25:42;;;;;;;;;6.75;5.75;;;;;25.99;42.08;101772.69;5120626;27;51897;-43
2021/08/17 03:28:08;;;;;;;;;7.25;7.25;;;;;25.99;42.27;101774.63;5101180;27;51232;-43
2021/08/17 03:30:35;;;;;;;;;7.50;5.50;;;;;26.00;42.14;101779.09;5100330;27;51083;-42
2021/08/17 03:33:00;;;;;;;;;9.00;7.00;;;;;25.99;42.23;101780.16;5100495;27;50892;-45
2021/08/17 03:35:25;;;;;;;;;8.00;6.00;;;;;25.99;42.12;101774.63;5100005;27;51735;-48
2021/08/17 03:37:51;;;;;;;;;5.75;4.00;;;;;25.98;42.26;101776.53;5100123;27;50933;-44
2021/08/17 03:40:19;;;;;;;;;8.25;7.50;;;;;25.97;42.14;101780.41;5100253;27;50927;-47
2021/08/17 03:42:44;;;;;;;;;8.00;5.50;;;;;25.96;42.10;101773.16;5081675;27;50998;-43
2021/08/17 03:45:12;;;;;;;;;9.00;6.75;;;;;25.99;42.22;101774.63;5099844;27;51603;-45
2021/08/17 03:47:37;;;;;;;;;6.00;5.50;;;;;25.98;42.19;101772.94;5099993;27;51050;-44
2021/08/17 03:50:05;;;;;;;;;8.25;8.25;;;;;25.98;42.43;101772.94;5099859;27;51162;-45
2021/08/17 03:52:30;;;;;;;;;8.50;7.00;;;;;25.96;42.38;101775.94;5100241;27;50811;-43
2021/08/17 03:54:55;;;;;;;;;5.75;5.75;;;;;25.96;42.20;101772.31;5099392;27;51029;-44
2021/08/17 03:57:21;;;;;;;;;6.00;6.00;;;;;25.96;42.46;101778.72;5099887;27;50998;-43
2021/08/17 03:59:46;;;;;;;;;6.75;6.00;;;;;25.96;42.33;101777.88;5081546;27;51142;-44
2021/08/17 04:02:11;;;;;;;;;8.25;6.25;;;;;25.96;42.14;101777.88;5099478;27;51176;-46
2021/08/17 04:04:37;;;;;;;;;9.00;6.75;;;;;25.95;42.10;101776.16;5100422;27;53908;-43
2021/08/17 04:07:02;;;;;;;;;8.25;6.75;;;;;25.95;42.30;101778.94;5120377;27;51130;-44
2021/08/17 04:09:28;;;;;;;;;7.00;6.25;;;;;25.95;42.38;101776.16;5120607;27;50916;-46
2021/08/17 04:11:53;;;;;;;;;7.00;7.00;;;;;25.94;42.05;101777.25;5120194;27;50996;-44
2021/08/17 04:14:18;;;;;;;;;9.75;5.00;;;;;25.94;42.19;101777.25;5119992;27;50966;-44
2021/08/17 04:16:44;;;;;;;;;10.50;8.75;;;;;25.95;42.23;101778.94;5120149;27;51055;-47
2021/08/17 04:19:09;;;;;;;;;9.00;6.00;;;;;25.93;41.82;101770.84;5119924;27;51140;-43
2021/08/17 04:21:35;;;;;;;;;8.25;6.25;;;;;25.93;42.25;101772.78;5120146;27;50951;-46
2021/08/17 04:24:00;;;;;;;;;4.50;3.50;;;;;25.93;41.95;101770.00;5119660;27;51945;-45
2021/08/17 04:26:26;;;;;;;;;6.50;6.00;;;;;25.93;42.04;101768.06;5095934;27;50952;-46
2021/08/17 04:28:51;;;;;;;;;8.75;6.50;;;;;25.93;42.25;101764.44;5099304;27;50978;-43
2021/08/17 04:31:17;;;;;;;;;6.75;6.25;;;;;25.92;42.16;101760.81;5099712;27;50884;-46
2021/08/17 04:33:42;;;;;;;;;8.00;6.50;;;;;25.92;41.96;101771.09;5098737;27;51884;-43
2021/08/17 04:36:08;;;;;;;;;8.25;5.00;;;;;25.92;41.94;101760.81;5099144;27;51051;-48
2021/08/17 04:38:33;;;;;;;;;9.75;8.50;;;;;25.90;42.06;101763.84;5099120;27;50986;-48
2021/08/17 04:40:58;;;;;;;;;6.00;5.25;;;;;25.90;42.21;101769.41;5081153;27;51146;-44
2021/08/17 04:43:24;;;;;;;;;6.75;5.25;;;;;25.90;42.25;101766.63;5098628;27;50960;-43
2021/08/17 04:45:52;;;;;;;;;5.00;4.75;;;;;25.90;42.59;101766.63;5099041;27;50873;-46
2021/08/17 04:48:17;;;;;;;;;8.25;6.75;;;;;25.90;41.94;101766.63;5098916;27;51068;-46
2021/08/17 04:50:43;;;;;;;;;9.00;7.50;;;;;25.92;42.09;101771.09;5080974;27;51062;-43
2021/08/17 04:53:08;;;;;;;;;7.00;7.00;;;;;25.90;42.17;101769.41;5080578;27;52900;-44
2021/08/17 04:55:33;;;;;;;;;6.00;4.25;;;;;25.90;42.16;101768.56;5098667;27;50926;-44
2021/08/17 04:57:59;;;;;;;;;6.00;5.75;;;;;25.89;42.34;101769.63;5080903;27;50997;-44
2021/08/17 05:00:27;;;;;;;;;5.75;3.50;;;;;25.90;42.33;101763.00;5098842;27;50962;-44
2021/08/17 05:02:53;;;;;;;;;5.75;5.75;;;;;25.88;42.56;101771.56;5102707;27;51042;-43
2021/08/17 05:05:19;;;;;;;;;8.75;8.00;;;;;25.89;42.07;101766.88;5119391;27;50892;-43
2021/08/17 05:07:45;;;;;;;;;9.00;6.75;;;;;25.89;42.29;101766.88;5118484;27;50990;-44
2021/08/17 05:10:14;;;;;;;;;5.75;5.25;;;;;25.88;42.30;101776.28;5119451;27;51110;-46
2021/08/17 05:12:40;;;;;;;;;6.75;6.00;;;;;25.87;42.36;101769.88;5119002;27;50982;-46
2021/08/17 05:15:07;;;;;;;;;9.00;4.75;;;;;25.89;42.04;101773.25;5119125;27;50934;-45
2021/08/17 05:17:33;;;;;;;;;5.75;5.75;;;;;25.88;42.72;101771.56;5119214;27;51136;-45
2021/08/17 05:19:59;;;;;;;;;7.00;6.00;;;;;25.88;42.46;101781.81;5119157;27;51242;-43
2021/08/17 05:22:24;;;;;;;;;6.00;5.25;;;;;25.87;42.26;101780.13;5118612;27;51648;-45
2021/08/17 05:24:50;;;;;;;;;6.25;4.75;;;;;25.87;42.29;101789.31;5119077;27;50886;-43
2021/08/17 05:27:16;;;;;;;;;7.50;5.00;;;;;25.87;42.18;101786.53;5088123;27;51007;-46
2021/08/17 05:29:41;;;;;;;;;6.50;4.50;;;;;25.87;42.05;101786.53;5098434;27;51561;-43
2021/08/17 05:32:07;;;;;;;;;7.50;6.25;;;;;25.86;42.04;101793.16;5098111;27;51809;-43
2021/08/17 05:34:32;;;;;;;;;7.00;6.25;;;;;25.86;42.20;101795.94;5079962;27;51159;-47
2021/08/17 05:36:58;;;;;;;;;4.00;4.00;;;;;25.86;42.26;101804.28;5098218;27;51234;-45
2021/08/17 05:39:24;;;;;;;;;6.00;6.00;;;;;25.86;42.11;101795.09;5098091;27;51176;-44
2021/08/17 05:41:49;;;;;;;;;7.50;5.75;;;;;25.86;42.15;101803.44;5097769;27;51330;-45
2021/08/17 05:44:15;;;;;;;;;6.75;5.25;;;;;25.86;42.14;101807.06;5098026;27;50984;-45
2021/08/17 05:46:41;;;;;;;;;7.50;6.50;;;;;25.85;42.48;101797.03;5097893;27;51094;-46
2021/08/17 05:49:06;;;;;;;;;7.00;5.00;;;;;25.84;42.09;101800.84;5098253;27;50910;-44
2021/08/17 05:51:32;;;;;;;;;8.00;6.50;;;;;25.83;42.54;101799.16;5079630;27;51911;-43
2021/08/17 05:53:57;;;;;;;;;6.00;4.25;;;;;25.85;42.46;101807.28;5079820;27;51019;-46
2021/08/17 05:56:22;;;;;;;;;5.50;5.25;;;;;25.84;42.31;101806.41;5097728;27;50895;-43
2021/08/17 05:58:47;;;;;;;;;8.00;7.00;;;;;25.85;42.19;101805.34;5098072;27;50890;-43
2021/08/17 06:01:13;;;;;;;;;5.25;5.25;;;;;25.84;42.30;101800.84;5098211;27;51009;-43
2021/08/17 06:03:38;;;;;;;;;6.75;5.00;;;;;25.84;41.97;101806.41;5108313;27;51107;-44
2021/08/17 06:06:04;;;;;;;;;11.50;5.75;;;;;25.84;41.95;101811.97;5118147;27;51046;-45
2021/08/17 06:08:29;;;;;;;;;6.50;6.00;;;;;25.84;42.30;101817.50;5118680;27;51192;-42
2021/08/17 06:10:55;;;;;;;;;8.50;6.75;;;;;25.84;42.09;101814.75;5117895;27;51207;-43
2021/08/17 06:13:20;;;;;;;;;7.50;7.25;;;;;25.84;42.09;101811.97;5118228;27;50962;-45
2021/08/17 06:15:45;;;;;;;;;6.75;5.50;;;;;25.83;42.49;101810.28;5117964;27;51188;-43
2021/08/17 06:18:11;;;;;;;;;6.50;5.00;;;;;25.83;42.32;101813.03;5119241;27;51062;-42
2021/08/17 06:20:36;;;;;;;;;7.00;6.00;;;;;25.83;42.38;101813.03;5103408;27;52683;-44
2021/08/17 06:23:03;;;;;;;;;9.25;7.50;;;;;25.83;42.00;101818.59;5121424;27;51034;-43
2021/08/17 06:25:29;;;;;;;;;9.00;4.75;;;;;25.82;42.42;101821.63;5121810;27;50915;-46
2021/08/17 06:27:56;;;;;;;;;6.50;6.50;;;;;25.83;42.06;101829.69;5103880;27;51219;-43
2021/08/17 06:30:23;;;;;;;;;6.25;6.00;;;;;25.82;42.26;101825.22;5100758;27;51037;-44
2021/08/17 06:32:48;;;;;;;;;5.75;4.75;;;;;25.83;42.11;101820.53;5082664;27;51249;-44
2021/08/17 06:35:14;;;;;;;;;6.25;6.25;;;;;25.83;42.07;101817.75;5101191;27;51034;-43
2021/08/17 06:37:40;;;;;;;;;9.00;8.50;;;;;25.83;42.10;101824.16;5101495;27;51062;-45
2021/08/17 06:40:06;;;;;;;;;8.75;6.00;;;;;25.83;42.16;101815.81;5100590;27;51805;-47
2021/08/17 06:42:32;;;;;;;;;5.25;4.00;;;;;25.82;42.02;101822.47;5100746;27;51390;-44
2021/08/17 06:44:58;;;;;;;;;6.75;5.00;;;;;25.83;42.16;101826.06;5101161;27;50986;-45
2021/08/17 06:47:23;;;;;;;;;8.00;6.00;;;;;25.84;42.29;101830.53;5082823;27;51382;-47
2021/08/17 06:49:48;;;;;;;;;6.25;4.25;;;;;25.84;42.29;101827.78;5100389;27;51149;-44
2021/08/17 06:52:14;;;;;;;;;8.75;6.50;;;;;25.85;42.60;101827.56;5100632;27;51102;-44
2021/08/17 06:54:39;;;;;;;;;9.00;9.00;;;;;25.86;42.29;101823.69;5100774;27;51160;-45
2021/08/17 06:57:04;;;;;;;;;8.75;7.00;;;;;25.87;42.19;101830.94;5100531;27;50938;-43
2021/08/17 06:59:30;;;;;;;;;6.00;3.00;;;;;25.88;42.42;101826.25;5082139;27;53907;-43
2021/08/17 07:01:55;;;;;;;;;6.00;5.50;;;;;25.89;41.97;101828.78;5082189;27;51117;-43
2021/08/17 07:04:20;;;;;;;;;9.75;6.75;;;;;25.89;42.36;101823.22;5117285;27;50967;-46
2021/08/17 07:06:46;;;;;;;;;7.50;5.50;;;;;25.91;42.11;101822.97;5121437;27;51307;-45
2021/08/17 07:09:11;;;;;;;;;5.00;5.00;;;;;25.94;42.35;101822.50;5120994;27;50949;-44
2021/08/17 07:11:36;;;;;;;;;6.25;4.50;;;;;25.95;42.11;101817.78;5120660;27;50980;-45
2021/08/17 07:14:02;;;;;;;;;7.00;5.75;;;;;25.96;41.96;101817.59;5120904;27;51021;-44
2021/08/17 07:16:27;;;;;;;;;7.75;6.75;;;;;25.99;42.38;101819.03;5102966;27;50933;-45
2021/08/17 07:18:52;;;;;;;;;11.25;7.75;;;;;26.02;41.76;101815.78;5120519;27;50937;-44
2021/08/17 07:21:18;;;;;;;;;4.75;4.50;;;;;26.05;41.88;101820.84;5120789;27;51196;-45
2021/08/17 07:23:43;;;;;;;;;8.00;6.75;;;;;26.06;41.50;101825.34;5120724;27;50973;-43
2021/08/17 07:26:08;;;;;;;;;7.50;7.50;;;;;26.09;41.81;101834.03;5099482;27;51296;-43
2021/08/17 07:28:34;;;;;;;;;7.75;7.00;;;;;26.10;41.84;101827.41;5099822;27;51052;-43
2021/08/17 07:30:59;;;;;;;;;6.75;6.00;;;;;26.13;41.69;101826.06;5081305;27;50940;-42
2021/08/17 07:33:25;;;;;;;;;8.00;6.75;;;;;26.11;42.04;101828.25;5081810;27;51130;-43
2021/08/17 07:35:50;;;;;;;;;6.25;6.25;;;;;26.13;41.40;101837.19;5100325;27;50890;-43
2021/08/17 07:38:16;;;;;;;;;6.75;5.25;;;;;26.12;41.42;101833.56;5099656;27;51706;-48
2021/08/17 07:40:41;;;;;;;;;6.00;5.75;;;;;26.12;41.57;101836.34;5099909;27;50915;-48
2021/08/17 07:43:07;;;;;;;;;7.00;5.25;;;;;26.12;41.55;101828.00;5099953;27;51149;-47
2021/08/17 07:45:33;;;;;;;;;8.50;7.25;;;;;26.12;41.89;101835.50;5099835;27;51210;-51
2021/08/17 07:47:58;;;;;;;;;7.75;5.75;;;;;26.12;41.48;101832.72;5099590;27;51665;-46
2021/08/17 07:50:23;;;;;;;;;6.50;4.75;;;;;26.13;41.64;101832.47;5081542;27;50890;-50
2021/08/17 07:52:50;;;;;;;;;8.25;7.50;;;;;26.13;41.23;101824.13;5100108;27;51483;-46
2021/08/17 07:55:16;;;;;;;;;5.50;5.50;;;;;26.16;41.33;101828.41;5100562;27;51366;-48
2021/08/17 07:57:42;;;;;;;;;8.00;5.25;;;;;26.16;41.17;101834.78;5099894;27;51050;-47
2021/08/17 08:00:11;;;;;;;;;7.75;6.50;;;;;26.18;41.24;101840.94;5099553;27;51293;-50
2021/08/17 08:02:37;;;;;;;;;7.25;5.50;;;;;26.18;41.70;101829.00;5101569;27;51286;-50
2021/08/17 08:05:03;;;;;;;;;5.25;5.25;;;;;26.19;41.38;101827.91;5120343;27;51712;-49
2021/08/17 08:07:28;;;;;;;;;6.00;6.00;;;;;26.21;41.38;101831.28;5120013;27;51829;-50
2021/08/17 08:09:54;;;;;;;;;6.00;3.75;;;;;26.21;41.13;101833.22;5120208;27;51418;-46
2021/08/17 08:12:19;;;;;;;;;7.50;6.00;;;;;26.23;41.57;101833.84;5120082;27;50908;-48
2021/08/17 08:14:45;;;;;;;;;7.00;5.00;;;;;26.24;41.39;101833.59;5120021;27;51075;-50
2021/08/17 08:17:11;;;;;;;;;6.00;5.00;;;;;26.24;41.49;101836.38;5119738;27;51970;-46
2021/08/17 08:19:37;;;;;;;;;5.00;5.00;;;;;26.24;41.38;101835.53;5119839;27;50998;-51
2021/08/17 08:22:04;;;;;;;;;5.75;4.75;;;;;26.25;41.45;101843.59;5119915;27;50813;-47
2021/08/17 08:24:30;;;;;;;;;5.25;4.25;;;;;26.26;41.45;101833.34;5119762;27;51149;-50
2021/08/17 08:26:55;;;;;;;;;7.25;6.00;;;;;26.26;41.61;101837.00;5109587;27;51765;-52
2021/08/17 08:29:21;;;;;;;;;5.75;4.25;;;;;26.27;41.18;101838.69;5098980;27;51016;-51
2021/08/17 08:31:46;;;;;;;;;6.75;6.00;;;;;26.27;41.27;101840.63;5080540;27;51090;-46
2021/08/17 08:34:11;;;;;;;;;9.25;5.00;;;;;26.27;41.55;101835.06;5099173;27;50996;-51
2021/08/17 08:36:37;;;;;;;;;6.00;5.75;;;;;26.28;41.11;101840.38;5098726;27;51091;-48
2021/08/17 08:39:02;;;;;;;;;6.00;5.00;;;;;26.27;41.44;101835.06;5080817;27;51097;-47
2021/08/17 08:41:28;;;;;;;;;5.00;5.00;;;;;26.27;41.19;101840.63;5097778;27;51011;-46
2021/08/17 08:43:54;;;;;;;;;6.50;5.75;;;;;26.25;41.29;101842.75;5098817;27;51822;-48
2021/08/17 08:46:21;;;;;;;;;7.25;5.25;;;;;26.26;41.20;101842.56;5098583;27;51949;-52
2021/08/17 08:48:52;;;;;;;;;7.25;5.00;;;;;26.24;41.28;101841.06;5098461;27;50889;-46
2021/08/17 08:51:19;;;;;;;;;7.00;6.00;;;;;26.25;41.23;101848.31;5098812;27;51060;-46
2021/08/17 08:53:45;;;;;;;;;3.75;3.75;;;;;26.24;41.26;101841.91;5098981;27;51169;-48
2021/08/17 08:56:10;;;;;;;;;7.50;5.00;;;;;26.25;41.54;101846.38;5098112;27;52174;-49
2021/08/17 08:58:36;;;;;;;;;6.25;5.50;;;;;26.24;41.47;101852.19;5098522;27;51181;-52
2021/08/17 09:01:02;;;;;;;;;7.00;5.00;;;;;26.22;41.42;101843.25;5098555;27;51439;-50
2021/08/17 09:03:47;;;;;;;;;10.00;6.25;;;;;26.21;41.36;101847.97;5108114;27;51090;-46
2021/08/17 09:06:25;;;;;;;;;2.50;2.50;;;;;26.19;41.70;101839.03;5100818;27;52361;-48
2021/08/17 09:09:16;;;;;;;;;6.00;4.75;;;;;26.17;41.34;101833.72;5100476;27;51236;-48
2021/08/17 09:11:53;;;;;;;;;6.50;4.50;;;;;26.17;41.42;101835.63;5100610;27;50958;-52
2021/08/17 09:14:34;;;;;;;;;6.00;5.50;;;;;26.15;41.94;101835.84;5119241;27;50876;-47
2021/08/17 09:17:05;;;;;;;;;4.75;4.75;;;;;26.15;41.76;101838.63;5119028;27;51390;-46
2021/08/17 09:19:48;;;;;;;;;7.00;5.00;;;;;26.15;41.45;101843.34;5118642;27;50988;-46
2021/08/17 09:22:19;;;;;;;;;7.75;5.25;;;;;26.13;41.74;101837.19;5118831;27;50992;-48
2021/08/17 09:24:52;;;;;;;;;7.25;3.50;;;;;26.13;41.61;101834.41;5119010;27;51133;-51
2021/08/17 09:27:38;;;;;;;;;4.50;4.50;;;;;26.13;41.53;101829.69;5105439;27;51981;-46
2021/08/17 09:30:06;;;;;;;;;5.25;4.25;;;;;26.13;41.82;101834.41;5097549;27;50877;-48
2021/08/17 09:32:32;;;;;;;;;5.00;4.25;;;;;26.13;41.77;101828.84;5098075;27;51045;-50
2021/08/17 09:35:04;;;;;;;;;5.75;4.00;;;;;26.13;41.86;101823.28;5098093;27;50900;-50
2021/08/17 09:37:32;;;;;;;;;5.50;5.50;;;;;26.12;41.68;101827.16;5097777;27;50962;-50
2021/08/17 09:40:01;;;;;;;;;5.00;5.00;;;;;26.11;41.70;101833.78;5080024;27;51361;-49
2021/08/17 09:42:34;;;;;;;;;5.50;4.50;;;;;26.11;41.93;101831.88;5097604;27;50964;-48
2021/08/17 09:45:12;;;;;;;;;6.50;4.25;;;;;26.11;42.01;101831.03;5097996;27;51091;-46
2021/08/17 09:47:41;;;;;;;;;3.00;3.00;;;;;26.10;41.43;101823.78;5097397;27;51766;-47
2021/08/17 09:50:24;;;;;;;;;3.25;3.25;;;;;26.10;41.90;101821.00;5097674;27;51309;-48
2021/08/17 09:53:04;;;;;;;;;6.50;4.75;;;;;26.10;41.64;101823.78;5096982;27;50972;-47
2021/08/17 09:55:29;;;;;;;;;3.00;3.00;;;;;26.09;41.73;101827.63;5097609;27;50841;-49
2021/08/17 09:57:55;;;;;;;;;5.50;3.25;;;;;26.09;41.86;101820.16;5079460;27;52946;-50
2021/08/17 10:00:20;;;;;;;;;6.00;5.00;;;;;26.09;41.94;101816.53;5097420;27;51060;-50
2021/08/17 10:02:47;;;;;;;;;7.25;5.00;;;;;26.09;42.02;101822.09;5097130;27;50974;-49
2021/08/17 10:05:15;;;;;;;;;6.00;6.00;;;;;26.08;41.47;101815.69;5117940;27;51398;-49
2021/08/17 10:07:43;;;;;;;;;5.25;5.25;;;;;26.06;41.67;101812.31;5118066;27;51822;-49
2021/08/17 10:10:10;;;;;;;;;7.00;6.00;;;;;26.07;41.64;101808.44;5117858;27;51181;-49
2021/08/17 10:12:36;;;;;;;;;6.75;4.25;;;;;26.06;41.53;101811.47;5117941;27;50990;-48
2021/08/17 10:15:03;;;;;;;;;9.00;4.00;;;;;26.07;41.78;101818.72;5118330;27;50976;-48
2021/08/17 10:17:28;;;;;;;;;6.75;4.25;;;;;26.07;41.57;101813.16;5117462;27;51913;-46
2021/08/17 10:19:54;;;;;;;;;4.75;4.75;;;;;26.05;41.46;101799.50;5099069;27;51181;-46
2021/08/17 10:22:19;;;;;;;;;6.50;6.50;;;;;26.06;41.81;101803.13;5117828;27;51019;-47
2021/08/17 10:24:48;;;;;;;;;5.50;5.25;;;;;26.07;41.35;101802.06;5118187;27;51242;-48
2021/08/17 10:27:35;;;;;;;;;6.00;4.00;;;;;26.07;41.46;101799.28;5105309;27;52112;-49
2021/08/17 10:30:03;;;;;;;;;6.25;5.00;;;;;26.07;41.67;101796.50;5079835;27;51349;-51
2021/08/17 10:32:36;;;;;;;;;5.50;5.25;;;;;26.08;41.77;101798.19;5097535;27;50983;-49
2021/08/17 10:35:01;;;;;;;;;5.25;3.50;;;;;26.07;41.72;101796.50;5097422;27;51314;-49
2021/08/17 10:37:27;;;;;;;;;7.00;5.00;;;;;26.08;41.55;101795.41;5096749;27;52169;-48
2021/08/17 10:39:52;;;;;;;;;3.50;3.50;;;;;26.06;41.39;101795.66;5096635;27;50942;-47
2021/08/17 10:42:26;;;;;;;;;5.25;3.25;;;;;26.07;41.48;101793.72;5096957;27;51516;-49
2021/08/17 10:44:53;;;;;;;;;3.00;3.00;;;;;26.06;41.15;101787.31;5097204;27;51372;-50
2021/08/17 10:47:33;;;;;;;;;5.25;5.00;;;;;26.06;41.51;101780.94;5096563;27;51752;-46
2021/08/17 10:49:59;;;;;;;;;6.25;3.50;;;;;26.07;41.37;101782.63;5096457;27;51303;-46
2021/08/17 10:52:26;;;;;;;;;4.50;4.50;;;;;26.06;41.47;101778.16;5097063;27;51353;-45
2021/08/17 10:55:32;;;;;;;;;6.00;6.00;;;;;26.07;41.51;101782.63;5096780;27;51273;-49
2021/08/17 10:58:11;;;;;;;;;7.00;5.00;;;;;26.06;41.21;101784.53;5096137;27;51792;-50
2021/08/17 11:00:39;;;;;;;;;3.50;3.50;;;;;26.06;41.34;101783.69;5096515;27;51350;-48
2021/08/17 11:03:05;;;;;;;;;7.25;5.00;;;;;26.05;41.64;101782.84;5101320;27;51092;-48
2021/08/17 11:05:57;;;;;;;;;6.25;4.00;;;;;26.05;41.25;101788.41;5118771;27;50813;-48
2021/08/17 11:08:31;;;;;;;;;6.00;5.75;;;;;26.05;41.25;101784.75;5118176;27;51069;-46
2021/08/17 11:11:02;;;;;;;;;7.00;4.75;;;;;26.04;41.64;101775.56;5120563;27;51064;-48
2021/08/17 11:13:27;;;;;;;;;4.75;4.75;;;;;26.05;41.36;101777.31;5120712;27;51017;-46
2021/08/17 11:16:10;;;;;;;;;6.00;5.00;;;;;26.04;41.58;101781.13;5120530;27;50955;-48
2021/08/17 11:18:59;;;;;;;;;5.50;4.25;;;;;26.05;41.43;101776.44;5119711;27;51045;-51
2021/08/17 11:21:36;;;;;;;;;4.50;4.00;;;;;26.04;41.69;101766.41;5120518;27;51068;-47
2021/08/17 11:24:16;;;;;;;;;7.00;6.00;;;;;26.05;41.30;101765.31;5120065;27;50906;-50